createdAt,value
2023-05-23T00:02:19.879Z,17.16
2023-05-23T00:04:46.197Z,16.93
2023-05-23T00:07:12.453Z,17.06
2023-05-23T00:09:38.747Z,17.28
2023-05-23T00:12:05.162Z,17.50
2023-05-23T00:14:31.409Z,17.67
2023-05-23T00:16:57.692Z,17.76
2023-05-23T00:19:23.962Z,17.78
2023-05-23T00:21:50.336Z,17.61
2023-05-23T00:24:16.768Z,17.18
2023-05-23T00:26:43.023Z,17.12
2023-05-23T00:29:09.265Z,17.34
2023-05-23T00:31:35.620Z,17.38
2023-05-23T00:34:01.937Z,17.53
2023-05-23T00:36:28.220Z,17.53
2023-05-23T00:38:54.485Z,17.60
2023-05-23T00:41:20.764Z,17.58
2023-05-23T00:43:47.126Z,17.64
2023-05-23T00:46:13.408Z,17.11
2023-05-23T00:48:39.690Z,17.08
2023-05-23T00:51:05.968Z,16.96
2023-05-23T00:53:32.215Z,16.53
2023-05-23T00:55:58.469Z,16.77
2023-05-23T00:58:24.740Z,16.95
2023-05-23T01:00:51.003Z,17.17
2023-05-23T01:03:17.376Z,17.27
2023-05-23T01:05:44.331Z,17.28
2023-05-23T01:08:10.568Z,16.78
2023-05-23T01:10:36.855Z,16.52
2023-05-23T01:13:09.796Z,16.57
2023-05-23T01:15:39.277Z,16.86
2023-05-23T01:18:14.029Z,17.03
2023-05-23T01:20:41.665Z,17.18
2023-05-23T01:23:23.247Z,17.26
2023-05-23T01:26:08.381Z,17.26
2023-05-23T01:28:37.966Z,17.28
2023-05-23T01:31:04.320Z,17.29
2023-05-23T01:33:30.569Z,16.76
2023-05-23T01:35:56.838Z,16.36
2023-05-23T01:38:23.079Z,16.50
2023-05-23T01:40:49.352Z,16.80
2023-05-23T01:43:15.616Z,16.88
2023-05-23T01:45:42.103Z,16.87
2023-05-23T01:48:08.639Z,17.03
2023-05-23T01:50:34.904Z,16.94
2023-05-23T01:53:01.164Z,16.84
2023-05-23T01:55:27.462Z,16.68
2023-05-23T01:57:54.793Z,16.31
2023-05-23T02:00:21.101Z,15.99
2023-05-23T02:02:47.485Z,15.90
2023-05-23T02:05:13.840Z,16.19
2023-05-23T02:07:40.116Z,16.69
2023-05-23T02:10:08.039Z,16.93
2023-05-23T02:12:34.290Z,16.98
2023-05-23T02:15:00.543Z,17.03
2023-05-23T02:17:26.863Z,16.99
2023-05-23T02:19:53.200Z,16.80
2023-05-23T02:22:22.682Z,16.38
2023-05-23T02:24:49.400Z,16.51
2023-05-23T02:27:15.668Z,16.80
2023-05-23T02:29:41.960Z,16.81
2023-05-23T02:32:08.217Z,16.82
2023-05-23T02:34:34.451Z,16.91
2023-05-23T02:37:00.732Z,16.57
2023-05-23T02:39:27.182Z,16.55
2023-05-23T02:41:53.443Z,16.73
2023-05-23T02:44:19.705Z,16.81
2023-05-23T02:46:46.089Z,16.91
2023-05-23T02:49:12.439Z,16.97
2023-05-23T02:51:38.686Z,16.97
2023-05-23T02:54:04.937Z,16.84
2023-05-23T02:56:31.211Z,16.90
2023-05-23T02:58:57.469Z,16.94
2023-05-23T03:01:23.740Z,16.95
2023-05-23T03:03:50.208Z,16.72
2023-05-23T03:06:16.542Z,16.74
2023-05-23T03:08:43.052Z,16.81
2023-05-23T03:11:09.460Z,16.64
2023-05-23T03:13:35.906Z,16.65
2023-05-23T03:16:02.339Z,16.73
2023-05-23T03:18:28.761Z,16.82
2023-05-23T03:20:55.131Z,16.88
2023-05-23T03:23:21.492Z,16.98
2023-05-23T03:25:48.854Z,16.97
2023-05-23T03:28:15.209Z,16.96
2023-05-23T03:30:41.587Z,16.86
2023-05-23T03:33:07.991Z,16.65
2023-05-23T03:35:34.393Z,16.84
2023-05-23T03:38:00.758Z,16.89
2023-05-23T03:40:27.130Z,16.91
2023-05-23T03:43:05.744Z,16.94
2023-05-23T03:45:32.329Z,16.92
2023-05-23T03:47:59.103Z,16.89
2023-05-23T03:50:25.539Z,16.76
2023-05-23T03:52:51.966Z,16.66
2023-05-23T03:55:18.331Z,16.73
2023-05-23T03:57:44.715Z,16.66
2023-05-23T04:00:11.299Z,16.77
2023-05-23T04:02:37.927Z,16.66
2023-05-23T04:05:04.578Z,16.64
2023-05-23T04:07:30.962Z,16.59
2023-05-23T04:09:57.330Z,16.53
2023-05-23T04:12:23.702Z,16.78
2023-05-23T04:14:50.065Z,16.72
2023-05-23T04:17:16.441Z,16.84
2023-05-23T04:19:42.844Z,16.94
2023-05-23T04:22:09.194Z,17.04
2023-05-23T04:24:35.471Z,17.08
2023-05-23T04:27:01.744Z,17.14
2023-05-23T04:29:27.991Z,17.18
2023-05-23T04:31:54.269Z,17.07
2023-05-23T04:34:20.515Z,16.77
2023-05-23T04:36:46.775Z,16.82
2023-05-23T04:39:13.031Z,16.85
2023-05-23T04:41:39.376Z,16.88
2023-05-23T04:44:05.689Z,16.82
2023-05-23T04:46:31.982Z,16.83
2023-05-23T04:48:58.256Z,16.99
2023-05-23T04:51:24.858Z,16.89
2023-05-23T04:53:51.213Z,16.90
2023-05-23T04:56:23.158Z,16.92
2023-05-23T04:58:49.401Z,16.80
2023-05-23T05:01:15.816Z,16.72
2023-05-23T05:03:42.283Z,16.70
2023-05-23T05:06:08.589Z,16.67
2023-05-23T05:08:34.893Z,16.60
2023-05-23T05:11:01.177Z,16.60
2023-05-23T05:13:27.483Z,16.58
2023-05-23T05:15:53.762Z,16.61
2023-05-23T05:18:20.037Z,16.73
2023-05-23T05:20:46.388Z,16.82
2023-05-23T05:23:13.939Z,16.95
2023-05-23T05:25:40.639Z,16.96
2023-05-23T05:28:07.012Z,16.80
2023-05-23T05:30:33.430Z,16.79
2023-05-23T05:32:59.767Z,16.84
2023-05-23T05:35:26.042Z,16.93
2023-05-23T05:37:52.296Z,16.94
2023-05-23T05:40:18.566Z,16.86
2023-05-23T05:42:44.815Z,16.88
2023-05-23T05:45:11.140Z,16.77
2023-05-23T05:47:37.429Z,16.93
2023-05-23T05:50:03.796Z,16.91
2023-05-23T05:52:30.090Z,16.91
2023-05-23T05:54:56.354Z,16.67
2023-05-23T05:57:22.628Z,16.53
2023-05-23T05:59:48.925Z,16.66
2023-05-23T06:05:11.046Z,16.87
2023-05-23T06:07:37.440Z,16.86
2023-05-23T06:10:03.794Z,16.82
2023-05-23T06:12:30.074Z,16.86
2023-05-23T06:14:56.745Z,16.89
2023-05-23T06:17:23.040Z,16.93
2023-05-23T06:19:49.295Z,17.06
2023-05-23T06:22:15.649Z,17.11
2023-05-23T06:24:41.893Z,17.05
2023-05-23T06:27:08.149Z,17.24
2023-05-23T06:29:34.399Z,17.16
2023-05-23T06:32:00.658Z,17.10
2023-05-23T06:34:26.932Z,17.01
2023-05-23T06:36:53.204Z,17.13
2023-05-23T06:39:19.454Z,17.17
2023-05-23T06:41:46.414Z,17.02
2023-05-23T06:44:12.672Z,16.91
2023-05-23T06:46:40.433Z,16.89
2023-05-23T06:49:14.704Z,16.96
2023-05-23T06:51:41.742Z,17.08
2023-05-23T06:54:08.092Z,17.09
2023-05-23T06:56:34.338Z,17.04
2023-05-23T06:59:00.589Z,17.11
2023-05-23T07:01:26.886Z,17.16
2023-05-23T07:03:53.177Z,17.37
2023-05-23T07:06:19.428Z,17.45
2023-05-23T07:08:45.689Z,17.50
2023-05-23T07:11:11.992Z,17.61
2023-05-23T07:13:38.267Z,17.66
2023-05-23T07:16:04.605Z,17.65
2023-05-23T07:18:30.872Z,17.66
2023-05-23T07:20:57.128Z,17.69
2023-05-23T07:23:23.440Z,17.89
2023-05-23T07:26:01.161Z,17.74
2023-05-23T07:28:28.545Z,17.82
2023-05-23T07:30:54.827Z,17.93
2023-05-23T07:39:00.756Z,18.23
2023-05-23T07:41:32.887Z,18.38
2023-05-23T07:44:01.652Z,18.51
2023-05-23T07:46:27.980Z,18.36
2023-05-23T07:48:54.276Z,18.15
2023-05-23T07:51:20.558Z,18.00
2023-05-23T07:53:47.032Z,17.67
2023-05-23T07:56:21.811Z,17.66
2023-05-23T07:58:48.142Z,17.44
2023-05-23T08:01:14.507Z,17.29
2023-05-23T08:03:40.738Z,17.12
2023-05-23T08:06:14.466Z,17.05
2023-05-23T08:08:45.016Z,16.99
2023-05-23T08:11:11.295Z,17.04
2023-05-23T08:13:37.566Z,17.08
2023-05-23T08:16:03.897Z,17.03
2023-05-23T08:18:30.218Z,17.10
2023-05-23T08:20:56.513Z,17.20
2023-05-23T08:23:22.800Z,17.30
2023-05-23T08:25:49.083Z,17.20
2023-05-23T08:28:18.454Z,17.18
2023-05-23T08:30:44.733Z,17.27
2023-05-23T08:33:11.101Z,17.46
2023-05-23T08:35:37.440Z,17.54
2023-05-23T08:38:05.812Z,17.70
2023-05-23T08:40:32.095Z,17.69
2023-05-23T08:42:58.377Z,17.76
2023-05-23T08:45:24.700Z,17.70
2023-05-23T08:47:51.363Z,17.91
2023-05-23T08:50:21.014Z,17.90
2023-05-23T08:52:58.580Z,17.90
2023-05-23T08:55:25.189Z,18.05
2023-05-23T08:57:52.589Z,18.37
2023-05-23T09:00:18.919Z,18.75
2023-05-23T09:02:45.295Z,18.69
2023-05-23T09:05:11.958Z,19.12
2023-05-23T09:07:39.063Z,18.75
2023-05-23T09:10:05.899Z,18.38
2023-05-23T09:12:32.171Z,18.35
2023-05-23T09:14:58.515Z,19.00
2023-05-23T09:17:24.821Z,18.28
2023-05-23T09:19:51.120Z,18.15
2023-05-23T09:22:17.696Z,17.64
2023-05-23T09:24:43.943Z,17.50
2023-05-23T09:27:10.189Z,17.45
2023-05-23T09:29:37.890Z,17.16
2023-05-23T09:32:10.694Z,16.90
2023-05-23T09:34:46.129Z,16.98
2023-05-23T09:37:16.461Z,17.01
2023-05-23T09:39:45.900Z,16.75
2023-05-23T09:42:12.183Z,16.65
2023-05-23T09:44:41.155Z,16.74
2023-05-23T09:47:07.546Z,16.64
2023-05-23T09:49:33.814Z,16.42
2023-05-23T09:52:00.214Z,16.54
2023-05-23T09:54:26.457Z,16.48
2023-05-23T09:56:52.947Z,16.62
2023-05-23T09:59:19.865Z,16.87
2023-05-23T10:01:46.180Z,17.02
2023-05-23T10:04:12.561Z,16.70
2023-05-23T10:06:41.139Z,16.93
2023-05-23T10:09:07.404Z,16.99
2023-05-23T10:11:33.637Z,16.82
2023-05-23T10:14:04.136Z,16.60
2023-05-23T10:16:41.014Z,16.45
2023-05-23T10:19:10.860Z,16.38
2023-05-23T10:21:46.060Z,16.33
2023-05-23T10:24:12.870Z,16.60
2023-05-23T10:26:46.591Z,16.46
2023-05-23T10:29:12.856Z,16.51
2023-05-23T10:31:39.174Z,16.43
2023-05-23T10:34:10.264Z,16.04
2023-05-23T10:36:44.861Z,16.03
2023-05-23T10:39:20.131Z,15.97
2023-05-23T10:41:51.641Z,15.87
2023-05-23T10:44:25.457Z,15.90
2023-05-23T10:46:52.433Z,15.56
2023-05-23T10:49:18.798Z,15.59
2023-05-23T10:51:48.586Z,15.49
2023-05-23T10:54:15.916Z,15.47
2023-05-23T10:56:42.175Z,15.50
2023-05-23T10:59:08.430Z,15.48
2023-05-23T11:01:38.855Z,15.44
2023-05-23T11:04:05.230Z,15.41
2023-05-23T11:06:41.358Z,15.30
2023-05-23T11:09:10.584Z,15.25
2023-05-23T11:11:52.364Z,15.15
2023-05-23T11:14:18.800Z,15.08
2023-05-23T11:16:45.110Z,14.94
2023-05-23T11:19:20.895Z,14.86
2023-05-23T11:22:10.629Z,14.78
2023-05-23T11:24:52.505Z,14.75
2023-05-23T11:27:27.646Z,14.50
2023-05-23T11:30:00.964Z,14.52
2023-05-23T11:32:27.928Z,14.53
2023-05-23T11:34:54.284Z,14.56
2023-05-23T11:37:20.586Z,14.48
2023-05-23T11:39:46.841Z,14.33
2023-05-23T11:42:13.532Z,14.20
2023-05-23T11:44:39.837Z,14.25
2023-05-23T11:47:06.318Z,14.20
2023-05-23T11:49:34.654Z,14.16
2023-05-23T11:52:01.704Z,14.07
2023-05-23T11:54:28.031Z,14.00
2023-05-23T11:56:54.670Z,14.08
2023-05-23T11:59:24.140Z,13.97
2023-05-23T12:01:50.425Z,13.96
2023-05-23T12:04:16.773Z,13.80
2023-05-23T12:06:43.932Z,13.82
2023-05-23T12:09:13.274Z,13.83
2023-05-23T12:11:39.777Z,13.80
2023-05-23T12:14:07.755Z,13.80
2023-05-23T12:16:34.178Z,13.62
2023-05-23T12:19:00.925Z,13.77
2023-05-23T12:21:27.255Z,13.66
2023-05-23T12:23:53.740Z,13.70
2023-05-23T12:26:20.014Z,13.71
2023-05-23T12:28:46.270Z,13.41
2023-05-23T12:31:13.038Z,13.28
2023-05-23T12:33:39.802Z,13.37
2023-05-23T12:36:06.416Z,13.46
2023-05-23T12:38:33.919Z,13.17
2023-05-23T12:41:15.289Z,13.11
2023-05-23T12:43:41.626Z,13.09
2023-05-23T12:46:07.966Z,13.05
2023-05-23T12:48:34.388Z,13.10
2023-05-23T12:51:00.642Z,13.04
2023-05-23T12:53:26.911Z,13.01
2023-05-23T12:55:53.169Z,13.01
2023-05-23T12:58:19.442Z,12.99
2023-05-23T13:00:45.737Z,12.91
2023-05-23T13:03:12.010Z,12.78
2023-05-23T13:05:38.755Z,12.59
2023-05-23T13:08:05.201Z,12.69
2023-05-23T13:10:32.195Z,12.85
2023-05-23T13:12:58.703Z,12.72
2023-05-23T13:15:24.960Z,12.46
2023-05-23T13:17:51.282Z,12.36
2023-05-23T13:20:17.555Z,12.31
2023-05-23T13:22:43.832Z,12.30
2023-05-23T13:25:10.218Z,12.36
2023-05-23T13:27:36.485Z,12.33
2023-05-23T13:30:02.766Z,12.49
2023-05-23T13:32:29.086Z,12.45
2023-05-23T13:34:55.378Z,12.64
2023-05-23T13:37:21.639Z,12.54
2023-05-23T13:39:47.879Z,12.46
2023-05-23T13:42:14.136Z,12.44
2023-05-23T13:44:40.388Z,12.39
2023-05-23T13:47:12.631Z,12.38
2023-05-23T13:49:39.555Z,12.34
2023-05-23T13:52:05.819Z,12.26
2023-05-23T13:54:32.081Z,12.26
2023-05-23T13:56:58.632Z,12.29
2023-05-23T13:59:27.862Z,12.30
2023-05-23T14:01:54.151Z,12.29
2023-05-23T14:04:20.421Z,12.36
2023-05-23T14:06:46.679Z,12.30
2023-05-23T14:09:13.002Z,12.52
2023-05-23T14:11:39.259Z,12.63
2023-05-23T14:14:05.511Z,12.63
2023-05-23T14:16:32.029Z,12.73
2023-05-23T14:18:58.422Z,12.97
2023-05-23T14:21:24.770Z,13.00
2023-05-23T14:23:51.006Z,13.18
2023-05-23T14:26:17.283Z,13.37
2023-05-23T14:28:43.524Z,13.62
2023-05-23T14:31:09.776Z,13.60
2023-05-23T14:33:36.096Z,13.86
2023-05-23T14:36:02.454Z,13.98
2023-05-23T14:38:28.718Z,13.93
2023-05-23T14:40:55.053Z,14.08
2023-05-23T14:43:21.333Z,14.02
2023-05-23T14:45:47.610Z,14.21
2023-05-23T14:48:13.983Z,14.40
2023-05-23T14:50:40.251Z,14.41
2023-05-23T14:53:08.584Z,14.20
2023-05-23T14:55:34.838Z,14.20
2023-05-23T14:58:01.142Z,14.08
2023-05-23T15:00:27.546Z,14.18
2023-05-23T15:02:53.850Z,14.12
2023-05-23T15:05:20.162Z,13.97
2023-05-23T15:07:46.437Z,14.12
2023-05-23T15:10:12.708Z,14.06
2023-05-23T15:12:38.984Z,14.12
2023-05-23T15:15:05.436Z,14.10
2023-05-23T15:17:34.531Z,14.17
2023-05-23T15:20:00.855Z,14.51
2023-05-23T15:24:58.028Z,14.14
2023-05-23T15:27:24.291Z,14.09
2023-05-23T15:29:50.552Z,14.14
2023-05-23T15:32:17.021Z,14.19
2023-05-23T15:34:43.370Z,14.18
2023-05-23T15:37:09.670Z,14.29
2023-05-23T15:39:35.924Z,14.68
2023-05-23T15:42:02.175Z,14.96
2023-05-23T15:44:28.466Z,14.82
2023-05-23T15:46:54.797Z,14.57
2023-05-23T15:49:26.567Z,14.40
2023-05-23T15:51:53.362Z,14.25
2023-05-23T15:54:19.622Z,14.07
2023-05-23T15:56:45.884Z,14.15
2023-05-23T15:59:12.145Z,14.16
2023-05-23T16:01:38.435Z,13.94
2023-05-23T16:04:04.754Z,14.02
2023-05-23T16:06:31.025Z,14.09
2023-05-23T16:08:57.313Z,14.23
2023-05-23T16:11:23.576Z,14.36
2023-05-23T16:13:49.846Z,14.26
2023-05-23T16:16:23.508Z,14.34
2023-05-23T16:18:49.819Z,14.38
2023-05-23T16:21:18.373Z,14.40
2023-05-23T16:23:44.844Z,14.26
2023-05-23T16:26:11.125Z,14.26
2023-05-23T16:28:37.391Z,14.05
2023-05-23T16:31:03.756Z,13.88
2023-05-23T16:33:30.061Z,13.90
2023-05-23T16:35:56.322Z,13.75
2023-05-23T16:38:22.591Z,13.75
2023-05-23T16:40:48.870Z,13.74
2023-05-23T16:43:15.158Z,13.81
2023-05-23T16:45:42.124Z,13.59
2023-05-23T16:48:08.614Z,13.54
2023-05-23T16:50:34.918Z,13.55
2023-05-23T16:53:01.218Z,13.64
2023-05-23T16:55:27.476Z,13.74
2023-05-23T16:57:53.728Z,13.76
2023-05-23T17:00:20.042Z,13.90
2023-05-23T17:02:46.569Z,14.04
2023-05-23T17:05:12.858Z,13.73
2023-05-23T17:07:39.119Z,13.59
2023-05-23T17:10:05.558Z,13.51
2023-05-23T17:12:31.806Z,13.43
2023-05-23T17:14:58.042Z,13.39
2023-05-23T17:17:24.310Z,13.27
2023-05-23T17:19:50.587Z,13.30
2023-05-23T17:22:16.855Z,13.21
2023-05-23T17:24:43.106Z,13.15
2023-05-23T17:27:09.385Z,13.18
2023-05-23T17:29:35.650Z,13.16
2023-05-23T17:32:02.027Z,13.05
2023-05-23T17:34:28.324Z,12.95
2023-05-23T17:36:54.607Z,12.96
2023-05-23T17:39:20.852Z,12.96
2023-05-23T17:41:47.110Z,12.86
2023-05-23T17:44:13.415Z,12.93
2023-05-23T17:46:39.787Z,12.98
2023-05-23T17:49:08.159Z,12.89
2023-05-23T17:51:35.604Z,12.85
2023-05-23T17:54:01.859Z,12.70
2023-05-23T17:56:30.550Z,12.74
2023-05-23T17:58:56.812Z,12.74
2023-05-23T18:01:23.605Z,12.80
2023-05-23T18:03:50.039Z,12.78
2023-05-23T18:06:16.330Z,12.61
2023-05-23T18:08:42.601Z,12.47
2023-05-23T18:11:08.850Z,12.39
2023-05-23T18:13:35.106Z,12.40
2023-05-23T18:16:01.348Z,12.54
2023-05-23T18:18:28.193Z,12.41
2023-05-23T18:20:54.459Z,12.47
2023-05-23T18:23:20.928Z,12.42
2023-05-23T18:25:47.224Z,12.35
2023-05-23T18:28:13.481Z,12.31
2023-05-23T18:30:40.061Z,12.33
2023-05-23T18:33:06.500Z,12.21
2023-05-23T18:35:32.837Z,12.27
2023-05-23T18:37:59.154Z,12.22
2023-05-23T18:40:25.414Z,12.30
2023-05-23T18:42:51.686Z,12.26
2023-05-23T18:45:17.968Z,12.17
2023-05-23T18:47:44.329Z,12.18
2023-05-23T18:50:10.897Z,12.13
2023-05-23T18:52:37.173Z,12.06
2023-05-23T18:55:03.513Z,12.05
2023-05-23T18:57:29.778Z,11.99
2023-05-23T18:59:56.118Z,11.97
2023-05-23T19:02:22.491Z,11.96
2023-05-23T19:04:48.805Z,11.92
2023-05-23T19:07:15.054Z,11.95
2023-05-23T19:09:41.323Z,11.96
2023-05-23T19:12:07.586Z,11.87
2023-05-23T19:14:33.857Z,11.90
2023-05-23T19:17:00.104Z,11.77
2023-05-23T19:19:28.000Z,11.75
2023-05-23T19:21:56.303Z,11.73
2023-05-23T19:24:22.560Z,11.73
2023-05-23T19:26:48.834Z,11.67
2023-05-23T19:29:15.145Z,11.72
2023-05-23T19:31:41.436Z,11.62
2023-05-23T19:34:07.777Z,11.66
2023-05-23T19:36:34.039Z,11.56
2023-05-23T19:39:00.294Z,11.58
2023-05-23T19:41:26.542Z,11.66
2023-05-23T19:43:52.796Z,11.54
2023-05-23T19:46:19.058Z,11.55
2023-05-23T19:48:45.352Z,11.47
2023-05-23T19:51:11.613Z,11.45
2023-05-23T19:53:37.949Z,11.42
2023-05-23T19:56:04.227Z,11.45
2023-05-23T19:58:30.501Z,11.44
2023-05-23T20:00:56.756Z,11.36
2023-05-23T20:03:23.019Z,11.29
2023-05-23T20:05:49.282Z,11.21
2023-05-23T20:08:15.544Z,11.23
2023-05-23T20:10:42.028Z,11.21
2023-05-23T20:13:08.508Z,11.20
2023-05-23T20:15:39.929Z,11.25
2023-05-23T20:18:06.977Z,11.13
2023-05-23T20:20:33.265Z,11.13
2023-05-23T20:22:59.520Z,11.10
2023-05-23T20:25:25.793Z,11.15
2023-05-23T20:27:52.064Z,11.12
2023-05-23T20:30:18.322Z,11.04
2023-05-23T20:32:44.646Z,11.08
2023-05-23T20:35:10.957Z,11.04
2023-05-23T20:37:37.221Z,11.03
2023-05-23T20:40:03.553Z,11.08
2023-05-23T20:42:29.836Z,11.01
2023-05-23T20:44:56.084Z,11.08
2023-05-23T20:47:22.332Z,10.99
2023-05-23T20:49:48.595Z,10.91
2023-05-23T20:52:14.852Z,10.95
2023-05-23T20:54:41.116Z,10.98
2023-05-23T20:57:07.371Z,10.88
2023-05-23T20:59:33.627Z,10.88
2023-05-23T21:01:59.892Z,10.91
2023-05-23T21:04:26.161Z,10.84
2023-05-23T21:06:52.420Z,10.90
2023-05-23T21:09:18.684Z,10.92
2023-05-23T21:11:44.920Z,10.91
2023-05-23T21:14:11.197Z,10.79
2023-05-23T21:16:37.494Z,10.85
2023-05-23T21:19:03.770Z,10.92
2023-05-23T21:21:30.064Z,10.86
2023-05-23T21:23:56.317Z,10.87
2023-05-23T21:26:22.574Z,10.85
2023-05-23T21:28:48.846Z,10.82
2023-05-23T21:31:16.325Z,10.87
2023-05-23T21:33:43.484Z,10.84
2023-05-23T21:36:09.737Z,10.84
2023-05-23T21:38:35.994Z,10.92
2023-05-23T21:41:02.247Z,11.00
2023-05-23T21:43:28.509Z,10.86
2023-05-23T21:45:54.794Z,10.84
2023-05-23T21:48:21.087Z,10.82
2023-05-23T21:50:47.329Z,10.84
2023-05-23T21:53:13.644Z,10.87
2023-05-23T21:55:39.886Z,10.87
2023-05-23T21:58:06.143Z,10.85
2023-05-23T22:00:32.386Z,10.85
2023-05-23T22:02:58.725Z,10.80
2023-05-23T22:05:25.040Z,10.80
2023-05-23T22:07:51.290Z,10.81
2023-05-23T22:10:18.043Z,10.80
2023-05-23T22:12:44.309Z,10.82
2023-05-23T22:15:10.780Z,10.80
2023-05-23T22:17:37.072Z,10.86
2023-05-23T22:20:03.509Z,10.82
2023-05-23T22:22:29.759Z,10.76
2023-05-23T22:24:56.009Z,10.85
2023-05-23T22:27:22.284Z,10.87
2023-05-23T22:29:48.527Z,10.80
2023-05-23T22:32:14.782Z,10.83
2023-05-23T22:34:41.038Z,10.88
2023-05-23T22:37:07.331Z,10.87
2023-05-23T22:39:33.622Z,10.73
2023-05-23T22:41:59.881Z,10.69
2023-05-23T22:44:26.128Z,10.68
2023-05-23T22:46:52.444Z,10.66
2023-05-23T22:49:18.712Z,10.61
2023-05-23T22:51:44.974Z,10.65
2023-05-23T22:54:11.237Z,10.62
2023-05-23T22:56:37.498Z,10.63
2023-05-23T22:59:03.776Z,10.65
2023-05-23T23:01:30.125Z,10.63
2023-05-23T23:03:56.452Z,10.53
2023-05-23T23:06:22.722Z,10.51
2023-05-23T23:08:48.987Z,10.48
2023-05-23T23:11:15.247Z,10.53
2023-05-23T23:13:41.495Z,10.53
2023-05-23T23:16:07.751Z,10.49
2023-05-23T23:18:33.996Z,10.39
2023-05-23T23:21:00.259Z,10.47
2023-05-23T23:23:26.520Z,10.50
2023-05-23T23:25:52.816Z,10.53
2023-05-23T23:28:19.109Z,10.53
2023-05-23T23:30:45.722Z,10.48
2023-05-23T23:33:12.198Z,10.49
2023-05-23T23:35:38.523Z,10.55
2023-05-23T23:38:04.789Z,10.57
2023-05-23T23:40:31.037Z,10.49
2023-05-23T23:42:57.301Z,10.48
2023-05-23T23:45:23.598Z,10.55
2023-05-23T23:47:49.868Z,10.57
2023-05-23T23:50:16.193Z,10.59
2023-05-23T23:52:42.458Z,10.57
2023-05-23T23:55:08.854Z,10.52
2023-05-23T23:57:35.121Z,10.46
